createdAt,value
2022-10-05T00:00:49.320Z,7.59
2022-10-05T00:05:51.166Z,7.60
2022-10-05T00:10:52.910Z,7.59
2022-10-05T00:16:19.304Z,7.69
2022-10-05T00:21:25.381Z,7.58
2022-10-05T00:26:32.106Z,7.49
2022-10-05T00:31:36.320Z,7.54
2022-10-05T00:36:39.414Z,7.45
2022-10-05T00:42:09.132Z,7.52
2022-10-05T00:47:16.716Z,7.51
2022-10-05T00:52:30.300Z,7.49
2022-10-05T00:58:14.596Z,7.44
2022-10-05T01:03:32.350Z,7.33
2022-10-05T01:08:36.969Z,7.34
2022-10-05T01:14:09.404Z,7.43
2022-10-05T01:19:20.756Z,7.38
2022-10-05T01:24:34.590Z,7.26
2022-10-05T01:29:56.492Z,7.28
2022-10-05T01:35:07.387Z,7.15
2022-10-05T01:40:15.239Z,7.00
2022-10-05T01:45:27.853Z,7.09
2022-10-05T01:50:56.193Z,7.07
2022-10-05T01:56:27.130Z,6.94
2022-10-05T02:02:00.304Z,6.77
2022-10-05T02:07:06.928Z,6.99
2022-10-05T02:12:16.152Z,6.93
2022-10-05T02:17:23.885Z,6.81
2022-10-05T02:22:31.882Z,6.80
2022-10-05T02:27:40.948Z,6.58
2022-10-05T02:33:06.668Z,6.78
2022-10-05T02:38:33.881Z,6.63
2022-10-05T02:43:40.165Z,6.83
2022-10-05T02:49:02.651Z,6.60
2022-10-05T02:54:26.937Z,6.59
2022-10-05T02:59:36.454Z,6.45
2022-10-05T03:05:21.209Z,6.56
2022-10-05T03:10:50.069Z,6.44
2022-10-05T03:15:58.245Z,6.22
2022-10-05T03:21:15.264Z,6.24
2022-10-05T03:26:32.943Z,6.20
2022-10-05T03:31:51.525Z,6.12
2022-10-05T03:37:10.525Z,6.10
2022-10-05T03:42:18.163Z,6.19
2022-10-05T03:47:34.325Z,6.15
2022-10-05T03:52:42.850Z,6.07
2022-10-05T03:57:47.441Z,5.92
2022-10-05T04:02:59.187Z,6.03
2022-10-05T04:08:10.192Z,6.16
2022-10-05T04:13:38.482Z,6.16
2022-10-05T04:18:48.217Z,6.14
2022-10-05T04:24:06.643Z,6.11
2022-10-05T04:29:26.874Z,6.13
2022-10-05T04:34:47.537Z,5.90
2022-10-05T04:40:11.109Z,5.90
2022-10-05T04:45:34.777Z,5.83
2022-10-05T04:51:10.331Z,5.99
2022-10-05T04:56:18.141Z,5.90
2022-10-05T05:01:21.636Z,6.00
2022-10-05T05:06:52.505Z,5.88
2022-10-05T05:12:28.480Z,5.62
2022-10-05T05:17:33.206Z,5.60
2022-10-05T05:23:06.582Z,5.80
2022-10-05T05:28:13.543Z,5.94
2022-10-05T05:33:20.579Z,5.85
2022-10-05T05:38:34.690Z,6.01
2022-10-05T05:44:14.477Z,5.90
2022-10-05T05:49:35.778Z,5.98
2022-10-05T05:54:44.212Z,5.96
2022-10-05T05:59:55.970Z,5.98
2022-10-05T06:05:06.229Z,6.04
2022-10-05T06:10:31.477Z,6.22
2022-10-05T06:15:44.871Z,6.39
2022-10-05T06:20:57.209Z,6.49
2022-10-05T06:26:30.193Z,6.57
2022-10-05T06:31:44.543Z,6.65
2022-10-05T06:36:52.890Z,6.97
2022-10-05T06:41:58.056Z,7.02
2022-10-05T06:47:41.604Z,7.19
2022-10-05T06:53:15.634Z,7.57
2022-10-05T06:58:41.988Z,7.62
2022-10-05T07:03:54.455Z,7.83
2022-10-05T07:08:56.322Z,8.54
2022-10-05T07:14:33.906Z,8.26
2022-10-05T07:20:05.323Z,8.58
2022-10-05T07:25:32.365Z,8.46
2022-10-05T07:30:56.395Z,8.66
2022-10-05T07:36:49.812Z,9.20
2022-10-05T07:42:19.859Z,10.12
2022-10-05T07:47:38.009Z,11.07
2022-10-05T07:52:46.117Z,15.05
2022-10-05T07:58:04.978Z,19.64
2022-10-05T08:03:18.282Z,26.44
2022-10-05T08:08:54.050Z,27.29
2022-10-05T08:14:06.242Z,25.72
2022-10-05T08:19:17.589Z,21.13
2022-10-05T08:24:43.858Z,19.46
2022-10-05T08:30:04.385Z,19.61
2022-10-05T08:35:37.777Z,22.82
2022-10-05T08:41:07.329Z,27.87
2022-10-05T08:46:19.063Z,28.24
2022-10-05T08:51:51.201Z,25.27
2022-10-05T08:57:14.240Z,23.86
2022-10-05T09:02:18.766Z,24.06
2022-10-05T09:07:27.070Z,19.99
2022-10-05T09:12:54.699Z,20.48
2022-10-05T09:18:24.344Z,22.49
2022-10-05T09:23:44.942Z,23.49
2022-10-05T09:29:31.445Z,24.54
2022-10-05T09:35:14.408Z,21.90
2022-10-05T09:40:53.042Z,19.97
2022-10-05T09:46:28.615Z,21.15
2022-10-05T09:51:49.177Z,20.40
2022-10-05T09:57:28.461Z,20.35
2022-10-05T10:02:56.220Z,20.79
2022-10-05T10:08:17.566Z,21.03
2022-10-05T10:13:49.272Z,23.72
2022-10-05T10:19:18.485Z,25.62
2022-10-05T10:24:38.195Z,25.31
2022-10-05T10:30:09.303Z,23.99
2022-10-05T10:35:22.190Z,23.01
2022-10-05T10:40:27.039Z,25.85
2022-10-05T10:45:28.815Z,24.65
2022-10-05T10:50:42.582Z,26.23
2022-10-05T10:56:17.918Z,26.89
2022-10-05T11:01:27.339Z,25.52
2022-10-05T11:07:02.637Z,25.23
2022-10-05T11:12:33.508Z,24.88
2022-10-05T11:17:55.701Z,22.54
2022-10-05T11:23:29.701Z,25.99
2022-10-05T11:28:46.620Z,27.22
2022-10-05T11:34:23.161Z,28.48
2022-10-05T11:39:44.997Z,30.11
2022-10-05T11:45:06.450Z,29.85
2022-10-05T11:50:17.229Z,29.47
2022-10-05T11:55:44.820Z,28.93
2022-10-05T12:00:57.317Z,29.57
2022-10-05T12:06:01.626Z,24.43
2022-10-05T12:11:31.037Z,25.27
2022-10-05T12:16:37.379Z,25.54
2022-10-05T12:21:53.556Z,26.43
2022-10-05T12:27:17.086Z,23.55
2022-10-05T12:32:50.202Z,23.99
2022-10-05T12:38:28.455Z,24.48
2022-10-05T12:44:04.832Z,23.30
2022-10-05T12:49:16.404Z,24.30
2022-10-05T12:54:36.425Z,22.82
2022-10-05T12:59:50.117Z,22.89
2022-10-05T13:05:03.024Z,22.02
2022-10-05T13:10:17.150Z,22.18
2022-10-05T13:15:29.669Z,21.84
2022-10-05T13:21:05.355Z,21.39
2022-10-05T13:26:25.550Z,21.56
2022-10-05T13:31:44.813Z,21.92
2022-10-05T13:37:05.942Z,22.28
2022-10-05T13:42:21.163Z,22.53
2022-10-05T13:47:44.452Z,22.50
2022-10-05T13:53:02.605Z,24.11
2022-10-05T13:58:40.230Z,22.66
2022-10-05T14:04:02.376Z,23.23
2022-10-05T14:09:04.396Z,23.14
2022-10-05T14:14:44.493Z,23.56
2022-10-05T14:19:51.146Z,22.68
2022-10-05T14:25:14.057Z,22.55
2022-10-05T14:30:15.736Z,22.34
2022-10-05T14:35:24.066Z,22.13
2022-10-05T14:40:25.890Z,22.00
2022-10-05T14:45:33.419Z,21.85
2022-10-05T14:50:51.044Z,21.70
2022-10-05T14:56:30.184Z,21.77
2022-10-05T15:01:36.591Z,21.05
2022-10-05T15:06:42.442Z,20.36
2022-10-05T15:11:54.374Z,20.20
2022-10-05T15:17:03.373Z,19.74
2022-10-05T15:22:25.288Z,19.44
2022-10-05T15:27:44.989Z,19.46
2022-10-05T15:33:01.656Z,19.25
2022-10-05T15:38:25.761Z,18.68
2022-10-05T15:43:40.895Z,18.89
2022-10-05T15:49:12.223Z,18.65
2022-10-05T15:54:52.679Z,18.48
2022-10-05T15:59:54.282Z,18.45
2022-10-05T16:05:20.023Z,18.22
2022-10-05T16:10:24.127Z,17.98
2022-10-05T16:15:48.611Z,18.34
2022-10-05T16:21:00.010Z,18.20
2022-10-05T16:26:11.636Z,18.09
2022-10-05T16:31:37.247Z,17.85
2022-10-05T16:37:32.724Z,17.65
2022-10-05T16:43:00.814Z,17.32
2022-10-05T16:48:02.491Z,16.68
2022-10-05T16:53:38.676Z,16.18
2022-10-05T16:59:17.680Z,15.67
2022-10-05T17:04:31.956Z,15.40
2022-10-05T17:09:44.456Z,15.30
2022-10-05T17:15:25.605Z,15.09
2022-10-05T17:21:01.040Z,14.94
2022-10-05T17:26:29.232Z,14.87
2022-10-05T17:31:32.056Z,14.70
2022-10-05T17:36:39.651Z,14.34
2022-10-05T17:41:41.828Z,14.18
2022-10-05T17:46:48.474Z,14.17
2022-10-05T17:52:11.511Z,13.86
2022-10-05T17:57:16.454Z,13.83
2022-10-05T18:02:22.790Z,13.83
2022-10-05T18:07:25.031Z,13.64
2022-10-05T18:13:05.058Z,13.48
2022-10-05T18:18:36.314Z,13.06
2022-10-05T18:23:38.031Z,12.98
2022-10-05T18:29:14.090Z,12.92
2022-10-05T18:34:18.497Z,12.90
2022-10-05T18:39:41.788Z,12.59
2022-10-05T18:45:14.054Z,12.44
2022-10-05T18:50:42.156Z,12.45
2022-10-05T18:56:03.792Z,12.17
2022-10-05T19:01:21.540Z,12.17
2022-10-05T19:07:14.224Z,12.47
2022-10-05T19:12:24.752Z,14.08
2022-10-05T19:17:48.177Z,14.13
2022-10-05T19:23:13.853Z,15.10
2022-10-05T19:28:38.738Z,16.57
2022-10-05T19:33:53.241Z,16.71
2022-10-05T19:39:04.062Z,17.02
2022-10-05T19:44:34.200Z,16.94
2022-10-05T19:49:56.984Z,16.95
2022-10-05T19:55:24.975Z,16.84
2022-10-05T20:00:32.472Z,16.93
2022-10-05T20:05:34.170Z,16.98
2022-10-05T20:10:35.847Z,16.88
2022-10-05T20:15:56.064Z,17.12
2022-10-05T20:20:57.859Z,17.06
2022-10-05T20:26:17.859Z,17.05
2022-10-05T20:31:20.169Z,17.01
2022-10-05T20:36:21.917Z,17.01
2022-10-05T20:41:23.596Z,16.97
2022-10-05T20:46:25.299Z,17.05
2022-10-05T20:51:28.966Z,17.17
2022-10-05T20:56:30.878Z,17.14
2022-10-05T21:01:34.271Z,17.16
2022-10-05T21:06:36.156Z,17.11
2022-10-05T21:11:39.714Z,17.11
2022-10-05T21:16:42.973Z,16.95
2022-10-05T21:21:46.080Z,16.73
2022-10-05T21:26:47.816Z,16.74
2022-10-05T21:31:49.588Z,17.09
2022-10-05T21:36:51.380Z,17.34
2022-10-05T21:41:53.072Z,17.56
2022-10-05T21:46:55.450Z,17.67
2022-10-05T21:51:58.790Z,17.65
2022-10-05T21:57:00.784Z,17.58
2022-10-05T22:02:02.984Z,17.48
2022-10-05T22:07:18.602Z,17.56
2022-10-05T22:12:20.738Z,17.94
2022-10-05T22:17:29.047Z,17.97
2022-10-05T22:22:30.811Z,17.89
2022-10-05T22:27:33.597Z,17.88
2022-10-05T22:32:35.281Z,17.81
2022-10-05T22:37:38.251Z,17.65
2022-10-05T22:42:40.969Z,17.49
2022-10-05T22:47:43.085Z,17.36
2022-10-05T22:52:44.782Z,17.38
2022-10-05T22:57:46.498Z,17.50
2022-10-05T23:02:48.300Z,17.37
2022-10-05T23:07:50.036Z,17.35
2022-10-05T23:13:00.811Z,17.59
2022-10-05T23:18:02.897Z,17.26
2022-10-05T23:23:04.653Z,17.16
2022-10-05T23:28:06.675Z,17.00
2022-10-05T23:33:08.368Z,16.89
2022-10-05T23:38:10.058Z,17.09
2022-10-05T23:43:11.736Z,17.31
2022-10-05T23:48:13.580Z,17.56
2022-10-05T23:53:16.400Z,17.62
2022-10-05T23:58:18.876Z,17.40
